CYZE

Gore Bay Manitoulin Airport

Gore Bay, Ontario, Canada
METAR CYZE 202300Z AUTO 16006KT 9SM CLR 23/18 A2999 RMK SLP156 DENSITY ALT 1600FT
Observed Flight Rules
Aug-20 @ 23:00 UTC (an hour ago) Visual Flight Rules
Wind Visibility Clouds
160° at 6 knots 9 miles
  • Clear skies
Temperatures Readings
Current 23°C / 73°F
Dewpoint 18°C / 64°F
Humidity 74%
Altimeter 29.99" Hg
Pressure 1015.6 hPa
Elevation 193
METAR CYZE 202300Z AUTO 16006KT 9SM CLR 23/18 A2999 RMK SLP156 DENSITY ALT 1600FT
Observed Flight Rules
Aug-20 @ 23:00 UTC
(an hour ago)
VFR
Wind Visibility
160° at 6 knots 9 miles
Clouds
  • Clear skies
Temperature Dewpoint
23°C / 73°F 18°C / 64°F
Humidity Altimeter Pressure
74% 29.99" Hg 1015.6 hPa